ROMMA est une association bénévole à but non lucratif. Votre soutien est indispensable : ADHERER à ROMMA ou FAIRE un DON

La Beaume - (05, Hautes Alpes)

Buëch (820 m)   Longitude: 5° 40' 9'' E   Latitude: 44° 32' 3'' N Station partenaire n°75
 

Détail journalier du     <<     >>

Température Precipitation Humidité Pression Vent Dir Rafale Dir. rafale Ensol.
Heure (°C) (mm) (%) (hPa) (km/h) (km/h) (min)
01:00 8.4074101611NO24NNO0
02:00 8.9069101613ONO31NO0
03:00 8.0073101611ONO24NO0
04:00 7.607410169NO19NNO0
05:00 6.207810175OSO13N0
06:00 4.908510174S10S0
07:00 3.708810182O8NNO0
08:00 2.809010182SSE8SE0
09:00 4.109210191ESE5ESE0
10:00 7.108710192N5S60
11:00 9.807510193NNE10ESE60
12:00 11.906110193E8ESE60
13:00 13.605110184ESE10E60
14:00 15.205010184SE11SE60
15:00 16.105010175SE11SE60
16:00 16.404910176SE13ESE60
17:00 15.106110176SSE15SE60
18:00 13.906510166S11SSO60
19:00 11.906910173SSO6SSO30
20:00 9.907710173SO8SO0
21:00 8.408310182SO8SO0
22:00 7.608510182SO8OSO0
23:00 7.408910192O6ONO0
minuit 6.908910192OSO6OSO0

Graphique du 16-10-2019

 

Serveur OMMA